Kake, AK

1:15 AM AKST on December 06, 2016 (GMT -0900)
Kake | | Change Station

Elev 171 ft 56.96 °N, 133.91 °W | Updated 19 minutes ago

Clear
Clear
21 °F
Feels Like 14 °F
N
6
Wind Variable Wind from NE

Today
High -- | Low -- °F
--% Chance of Precip.
Yesterday
High -- | Low -- °F
Precip. -- in
Pressure 30.46 in
Visibility 10.0 miles
Clouds Clear
Windchill 14 °F
Dew Point 12 °F
Humidity 68%
Rainfall 0.00 in
Snow Depth Not available.
8:17 AM 3:16 PM
Waxing Crescent, 40% visible
METAR PAFE 060956Z AUTO 04005KT 10SM CLR M06/M11 A3046 RMK AO1
Pressure 30.46 in
Visibility 10.0 miles
Clouds Clear
Windchill 14 °F
Dew Point 12 °F
Humidity 68%
Rainfall 0.00 in
Snow Depth Not available.
8:17 AM 3:16 PM
Waxing Crescent, 40% visible
METAR PAFE 060956Z AUTO 04005KT 10SM CLR M06/M11 A3046 RMK AO1

10-Day Weather Forecast

Almanac

Astronomy

Dec. 06, 2016 Rise Set
Actual Time
Civil Twilight
Nautical Twilight
Astronomical Twilight
Moon
Length of Visible Light
Length of Day
Tomorrow will be .
, % of the Moon is Illuminated

Today's Extremes

State Highs State Lows

Community

WunderPhotos

Upload Photos

1,955,935 photos uploaded!

WunderBlog® & News

Nearby

Air Quality

  Air Quality AQ Index Pollutant
Not available.

Snow Depth

Station Depth Elevation

Earthquake Activity

City Distance Mag. Time & Date
Minimum magnitude displayed is 2.5.

Coastal Water Temperatures

Place Temperature

Stations

Nearby Weather Stations

Station Location Temp. Windchill Dew Point Humidity Wind Precip. Elev Updated Type
                   

Watches & Warnings

There are currently no watches in effect.